sensor_id;sensor_type;location;lat;lon;timestamp;pressure;altitude;pressure_sealevel;temperature;humidity
41898;BME280;27576;53.366;-1.498;2022-10-31T00:00:21;99955.41;;;10.78;100.00
41898;BME280;27576;53.366;-1.498;2022-10-31T00:02:46;99964.97;;;10.87;100.00
41898;BME280;27576;53.366;-1.498;2022-10-31T00:05:12;99958.91;;;10.81;100.00
41898;BME280;27576;53.366;-1.498;2022-10-31T00:07:37;99959.75;;;10.82;100.00
41898;BME280;27576;53.366;-1.498;2022-10-31T00:10:03;99973.59;;;10.86;100.00
41898;BME280;27576;53.366;-1.498;2022-10-31T00:12:28;99968.38;;;10.79;100.00
41898;BME280;27576;53.366;-1.498;2022-10-31T00:14:54;99969.28;;;10.85;100.00
41898;BME280;27576;53.366;-1.498;2022-10-31T00:17:19;99977.06;;;10.86;100.00
41898;BME280;27576;53.366;-1.498;2022-10-31T00:19:44;99975.31;;;10.84;100.00
41898;BME280;27576;53.366;-1.498;2022-10-31T00:22:10;99965.75;;;10.76;100.00
41898;BME280;27576;53.366;-1.498;2022-10-31T00:24:35;99946.72;;;10.65;100.00
41898;BME280;27576;53.366;-1.498;2022-10-31T00:27:01;99956.22;;;10.68;100.00
41898;BME280;27576;53.366;-1.498;2022-10-31T00:29:26;99971.00;;;10.82;100.00
41898;BME280;27576;53.366;-1.498;2022-10-31T00:31:52;99983.06;;;10.77;100.00
41898;BME280;27576;53.366;-1.498;2022-10-31T00:34:17;99967.44;;;10.62;100.00
41898;BME280;27576;53.366;-1.498;2022-10-31T00:36:42;99979.53;;;10.65;100.00
41898;BME280;27576;53.366;-1.498;2022-10-31T00:39:08;99982.16;;;10.69;100.00
41898;BME280;27576;53.366;-1.498;2022-10-31T00:41:33;99950.91;;;10.42;100.00
41898;BME280;27576;53.366;-1.498;2022-10-31T00:43:59;99980.31;;;10.51;100.00
41898;BME280;27576;53.366;-1.498;2022-10-31T00:46:24;99993.28;;;10.56;100.00
41898;BME280;27576;53.366;-1.498;2022-10-31T00:48:49;99989.84;;;10.54;100.00
41898;BME280;27576;53.366;-1.498;2022-10-31T00:51:15;99982.91;;;10.50;100.00
41898;BME280;27576;53.366;-1.498;2022-10-31T00:53:40;99965.56;;;10.38;100.00
41898;BME280;27576;53.366;-1.498;2022-10-31T00:56:06;99963.81;;;10.36;100.00
41898;BME280;27576;53.366;-1.498;2022-10-31T00:58:31;99979.41;;;10.43;100.00
41898;BME280;27576;53.366;-1.498;2022-10-31T01:00:57;99989.75;;;10.43;100.00
41898;BME280;27576;53.366;-1.498;2022-10-31T01:03:28;99981.94;;;10.34;100.00
41898;BME280;27576;53.366;-1.498;2022-10-31T01:05:59;99992.31;;;10.34;100.00
41898;BME280;27576;53.366;-1.498;2022-10-31T01:08:25;99973.19;;;10.24;100.00
41898;BME280;27576;53.366;-1.498;2022-10-31T01:11:05;100000.06;;;10.36;100.00
41898;BME280;27576;53.366;-1.498;2022-10-31T01:13:32;99986.22;;;10.30;100.00
41898;BME280;27576;53.366;-1.498;2022-10-31T01:15:58;99993.97;;;10.29;100.00
41898;BME280;27576;53.366;-1.498;2022-10-31T01:18:24;99999.16;;;10.29;100.00
41898;BME280;27576;53.366;-1.498;2022-10-31T01:20:58;99989.53;;;10.16;100.00
41898;BME280;27576;53.366;-1.498;2022-10-31T01:23:23;100008.59;;;10.24;100.00
41898;BME280;27576;53.366;-1.498;2022-10-31T01:25:49;99985.19;;;10.10;100.00
41898;BME280;27576;53.366;-1.498;2022-10-31T01:28:14;100001.66;;;10.18;100.00
41898;BME280;27576;53.366;-1.498;2022-10-31T01:30:39;99999.06;;;10.20;100.00
41898;BME280;27576;53.366;-1.498;2022-10-31T01:33:05;99976.50;;;10.05;100.00
41898;BME280;27576;53.366;-1.498;2022-10-31T01:35:30;100019.00;;;10.27;100.00
41898;BME280;27576;53.366;-1.498;2022-10-31T01:37:55;100010.38;;;10.29;100.00
41898;BME280;27576;53.366;-1.498;2022-10-31T01:40:21;100003.47;;;10.28;100.00
41898;BME280;27576;53.366;-1.498;2022-10-31T01:42:46;100005.25;;;10.34;100.00
41898;BME280;27576;53.366;-1.498;2022-10-31T01:45:13;99980.06;;;10.19;100.00
41898;BME280;27576;53.366;-1.498;2022-10-31T01:47:43;99972.28;;;10.16;100.00
41898;BME280;27576;53.366;-1.498;2022-10-31T01:50:13;99996.63;;;10.34;100.00
41898;BME280;27576;53.366;-1.498;2022-10-31T01:52:43;99997.53;;;10.43;100.00
41898;BME280;27576;53.366;-1.498;2022-10-31T01:55:12;99999.28;;;10.46;100.00
41898;BME280;27576;53.366;-1.498;2022-10-31T01:57:40;99999.28;;;10.47;100.00
41898;BME280;27576;53.366;-1.498;2022-10-31T02:00:09;100012.28;;;10.50;100.00
41898;BME280;27576;53.366;-1.498;2022-10-31T02:02:36;100006.22;;;10.53;100.00
41898;BME280;27576;53.366;-1.498;2022-10-31T02:05:05;100007.09;;;10.56;100.00
41898;BME280;27576;53.366;-1.498;2022-10-31T02:07:46;99986.34;;;10.46;100.00
41898;BME280;27576;53.366;-1.498;2022-10-31T02:10:14;99971.59;;;10.39;100.00
41898;BME280;27576;53.366;-1.498;2022-10-31T02:12:40;100011.47;;;10.59;100.00
41898;BME280;27576;53.366;-1.498;2022-10-31T02:15:07;100010.59;;;10.60;100.00
41898;BME280;27576;53.366;-1.498;2022-10-31T02:17:33;100009.75;;;10.61;100.00
41898;BME280;27576;53.366;-1.498;2022-10-31T02:31:19;100022.81;;;10.82;100.00
41898;BME280;27576;53.366;-1.498;2022-10-31T02:33:52;100016.81;;;10.85;100.00
41898;BME280;27576;53.366;-1.498;2022-10-31T02:36:30;100026.31;;;10.88;100.00
41898;BME280;27576;53.366;-1.498;2022-10-31T02:44:32;100013.38;;;10.94;100.00
41898;BME280;27576;53.366;-1.498;2022-10-31T02:47:16;100001.31;;;10.97;100.00
41898;BME280;27576;53.366;-1.498;2022-10-31T02:49:48;99988.34;;;10.93;100.00
41898;BME280;27576;53.366;-1.498;2022-10-31T02:52:20;99981.38;;;10.86;100.00
41898;BME280;27576;53.366;-1.498;2022-10-31T02:54:47;99999.56;;;10.99;100.00
41898;BME280;27576;53.366;-1.498;2022-10-31T02:57:13;99996.09;;;10.90;100.00
41898;BME280;27576;53.366;-1.498;2022-10-31T02:59:46;99957.09;;;10.68;100.00
41898;BME280;27576;53.366;-1.498;2022-10-31T03:05:07;99996.13;;;10.97;100.00
41898;BME280;27576;53.366;-1.498;2022-10-31T03:10:09;99995.25;;;10.94;100.00
41898;BME280;27576;53.366;-1.498;2022-10-31T03:12:55;99986.56;;;10.86;100.00
41898;BME280;27576;53.366;-1.498;2022-10-31T03:15:33;99967.53;;;10.84;100.00
41898;BME280;27576;53.366;-1.498;2022-10-31T03:20:52;99976.22;;;10.89;100.00
41898;BME280;27576;53.366;-1.498;2022-10-31T03:23:22;99965.84;;;10.89;100.00
41898;BME280;27576;53.366;-1.498;2022-10-31T03:25:48;99953.72;;;10.81;100.00
41898;BME280;27576;53.366;-1.498;2022-10-31T03:28:16;99931.16;;;10.68;100.00
41898;BME280;27576;53.366;-1.498;2022-10-31T03:30:44;99957.16;;;10.84;100.00
41898;BME280;27576;53.366;-1.498;2022-10-31T03:33:15;99936.34;;;10.68;100.00
41898;BME280;27576;53.366;-1.498;2022-10-31T03:35:45;99958.88;;;10.78;100.00
41898;BME280;27576;53.366;-1.498;2022-10-31T03:38:12;99932.03;;;10.63;100.00
41898;BME280;27576;53.366;-1.498;2022-10-31T03:40:40;99967.56;;;10.87;100.00
41898;BME280;27576;53.366;-1.498;2022-10-31T03:43:14;99946.75;;;10.74;100.00
41898;BME280;27576;53.366;-1.498;2022-10-31T03:45:44;99960.66;;;10.92;100.00
41898;BME280;27576;53.366;-1.498;2022-10-31T03:48:11;99958.91;;;10.88;100.00
41898;BME280;27576;53.366;-1.498;2022-10-31T03:53:30;99939.91;;;10.86;100.00
41898;BME280;27576;53.366;-1.498;2022-10-31T03:56:31;99965.03;;;11.02;100.00
41898;BME280;27576;53.366;-1.498;2022-10-31T04:01:26;99937.34;;;10.89;100.00
41898;BME280;27576;53.366;-1.498;2022-10-31T04:03:56;99951.16;;;10.91;100.00
41898;BME280;27576;53.366;-1.498;2022-10-31T04:06:23;99966.75;;;11.03;100.00
41898;BME280;27576;53.366;-1.498;2022-10-31T04:08:55;99960.69;;;11.04;100.00
41898;BME280;27576;53.366;-1.498;2022-10-31T04:11:25;99946.88;;;11.02;100.00
41898;BME280;27576;53.366;-1.498;2022-10-31T04:13:54;99929.53;;;10.92;100.00
41898;BME280;27576;53.366;-1.498;2022-10-31T04:16:21;99961.56;;;11.03;100.00
41898;BME280;27576;53.366;-1.498;2022-10-31T04:18:48;99933.00;;;10.86;100.00
41898;BME280;27576;53.366;-1.498;2022-10-31T04:21:13;99932.09;;;10.84;100.00
41898;BME280;27576;53.366;-1.498;2022-10-31T04:23:39;99913.91;;;10.70;100.00
41898;BME280;27576;53.366;-1.498;2022-10-31T04:26:04;99938.13;;;10.80;100.00
41898;BME280;27576;53.366;-1.498;2022-10-31T04:28:30;99958.91;;;10.88;100.00
41898;BME280;27576;53.366;-1.498;2022-10-31T04:30:55;99919.97;;;10.71;100.00
41898;BME280;27576;53.366;-1.498;2022-10-31T04:33:20;99941.56;;;10.71;100.00
41898;BME280;27576;53.366;-1.498;2022-10-31T04:35:46;99948.56;;;10.85;100.00
41898;BME280;27576;53.366;-1.498;2022-10-31T04:38:12;99957.19;;;10.85;100.00
41898;BME280;27576;53.366;-1.498;2022-10-31T04:40:37;99943.38;;;10.85;100.00
41898;BME280;27576;53.366;-1.498;2022-10-31T04:43:02;99938.19;;;10.85;100.00
41898;BME280;27576;53.366;-1.498;2022-10-31T04:45:28;99945.97;;;10.89;100.00
41898;BME280;27576;53.366;-1.498;2022-10-31T04:47:53;99939.06;;;10.91;100.00
41898;BME280;27576;53.366;-1.498;2022-10-31T04:50:19;99926.97;;;10.93;100.00
41898;BME280;27576;53.366;-1.498;2022-10-31T04:52:45;99931.28;;;10.96;100.00
41898;BME280;27576;53.366;-1.498;2022-10-31T04:55:12;99927.84;;;10.97;100.00
41898;BME280;27576;53.366;-1.498;2022-10-31T04:57:46;99939.09;;;11.00;100.00
41898;BME280;27576;53.366;-1.498;2022-10-31T05:00:14;99930.44;;;10.98;100.00
41898;BME280;27576;53.366;-1.498;2022-10-31T05:02:46;99907.09;;;10.89;100.00
41898;BME280;27576;53.366;-1.498;2022-10-31T05:05:13;99921.78;;;10.95;100.00
41898;BME280;27576;53.366;-1.498;2022-10-31T05:07:43;99907.94;;;10.85;100.00
41898;BME280;27576;53.366;-1.498;2022-10-31T05:10:14;99902.75;;;10.87;100.00
41898;BME280;27576;53.366;-1.498;2022-10-31T05:12:52;99915.72;;;10.85;100.00
41898;BME280;27576;53.366;-1.498;2022-10-31T05:15:19;99918.28;;;10.82;100.00
41898;BME280;27576;53.366;-1.498;2022-10-31T05:17:44;99931.28;;;10.94;100.00
41898;BME280;27576;53.366;-1.498;2022-10-31T05:20:11;99919.22;;;10.98;100.00
41898;BME280;27576;53.366;-1.498;2022-10-31T05:22:45;99914.00;;;10.95;100.00
41898;BME280;27576;53.366;-1.498;2022-10-31T05:25:11;99900.19;;;10.96;100.00
41898;BME280;27576;53.366;-1.498;2022-10-31T05:27:41;99922.69;;;11.06;100.00
41898;BME280;27576;53.366;-1.498;2022-10-31T05:30:08;99916.63;;;11.07;100.00
41898;BME280;27576;53.366;-1.498;2022-10-31T05:32:41;99890.69;;;10.93;100.00
41898;BME280;27576;53.366;-1.498;2022-10-31T05:35:11;99901.06;;;10.99;100.00
41898;BME280;27576;53.366;-1.498;2022-10-31T05:37:37;99879.44;;;10.94;100.00
41898;BME280;27576;53.366;-1.498;2022-10-31T05:40:04;99885.50;;;10.99;100.00
41898;BME280;27576;53.366;-1.498;2022-10-31T05:42:30;99910.63;;;11.13;100.00
41898;BME280;27576;53.366;-1.498;2022-10-31T05:44:55;99902.81;;;11.10;100.00
41898;BME280;27576;53.366;-1.498;2022-10-31T05:47:20;99908.88;;;11.18;100.00
41898;BME280;27576;53.366;-1.498;2022-10-31T05:49:46;99912.34;;;11.18;100.00
41898;BME280;27576;53.366;-1.498;2022-10-31T05:52:11;99905.44;;;11.17;100.00
41898;BME280;27576;53.366;-1.498;2022-10-31T05:54:36;99882.91;;;11.04;100.00
41898;BME280;27576;53.366;-1.498;2022-10-31T05:57:02;99908.03;;;11.20;100.00
41898;BME280;27576;53.366;-1.498;2022-10-31T05:59:27;99895.03;;;11.11;100.00
41898;BME280;27576;53.366;-1.498;2022-10-31T06:01:53;99877.75;;;11.01;100.00
41898;BME280;27576;53.366;-1.498;2022-10-31T06:04:18;99882.94;;;11.09;100.00
41898;BME280;27576;53.366;-1.498;2022-10-31T06:06:43;99888.13;;;11.10;100.00
41898;BME280;27576;53.366;-1.498;2022-10-31T06:09:09;99889.88;;;11.14;100.00
41898;BME280;27576;53.366;-1.498;2022-10-31T06:11:34;99908.03;;;11.25;100.00
41898;BME280;27576;53.366;-1.498;2022-10-31T06:14:00;99900.25;;;11.22;100.00
41898;BME280;27576;53.366;-1.498;2022-10-31T06:16:25;99882.97;;;11.16;100.00
41898;BME280;27576;53.366;-1.498;2022-10-31T06:18:50;99902.88;;;11.28;100.00
41898;BME280;27576;53.366;-1.498;2022-10-31T06:21:17;99892.47;;;11.23;100.00
41898;BME280;27576;53.366;-1.498;2022-10-31T06:23:42;99904.59;;;11.35;100.00
41898;BME280;27576;53.366;-1.498;2022-10-31T06:26:07;99873.44;;;11.23;100.00
41898;BME280;27576;53.366;-1.498;2022-10-31T06:28:33;99902.00;;;11.37;100.00
41898;BME280;27576;53.366;-1.498;2022-10-31T06:30:58;99885.56;;;11.30;100.00
41898;BME280;27576;53.366;-1.498;2022-10-31T06:33:24;99900.28;;;11.42;100.00
41898;BME280;27576;53.366;-1.498;2022-10-31T06:35:49;99883.84;;;11.41;100.00
41898;BME280;27576;53.366;-1.498;2022-10-31T06:38:14;99859.63;;;11.30;100.00
41898;BME280;27576;53.366;-1.498;2022-10-31T06:40:41;99881.25;;;11.43;100.00
41898;BME280;27576;53.366;-1.498;2022-10-31T06:43:06;99849.25;;;11.27;100.00
41898;BME280;27576;53.366;-1.498;2022-10-31T06:45:31;99882.13;;;11.43;100.00
41898;BME280;27576;53.366;-1.498;2022-10-31T06:47:57;99879.53;;;11.43;100.00
41898;BME280;27576;53.366;-1.498;2022-10-31T06:50:23;99870.88;;;11.34;100.00
41898;BME280;27576;53.366;-1.498;2022-10-31T06:52:57;99875.22;;;11.45;100.00
41898;BME280;27576;53.366;-1.498;2022-10-31T06:55:24;99870.03;;;11.44;100.00
41898;BME280;27576;53.366;-1.498;2022-10-31T06:57:51;99877.81;;;11.48;100.00
41898;BME280;27576;53.366;-1.498;2022-10-31T07:00:17;99862.25;;;11.36;100.00
41898;BME280;27576;53.366;-1.498;2022-10-31T07:02:42;99863.94;;;11.39;100.00
41898;BME280;27576;53.366;-1.498;2022-10-31T07:05:07;99869.16;;;11.42;100.00
41898;BME280;27576;53.366;-1.498;2022-10-31T07:07:33;99881.28;;;11.49;100.00
41898;BME280;27576;53.366;-1.498;2022-10-31T07:09:58;99875.22;;;11.48;100.00
41898;BME280;27576;53.366;-1.498;2022-10-31T07:12:24;99863.94;;;11.36;100.00
41898;BME280;27576;53.366;-1.498;2022-10-31T07:14:49;99876.97;;;11.48;100.00
41898;BME280;27576;53.366;-1.498;2022-10-31T07:17:14;99881.28;;;11.49;100.00
41898;BME280;27576;53.366;-1.498;2022-10-31T07:19:40;99881.25;;;11.50;100.00
41898;BME280;27576;53.366;-1.498;2022-10-31T07:22:06;99865.69;;;11.43;100.00
41898;BME280;27576;53.366;-1.498;2022-10-31T07:24:31;99876.94;;;11.52;100.00
41898;BME280;27576;53.366;-1.498;2022-10-31T07:26:57;99874.34;;;11.45;100.00
41898;BME280;27576;53.366;-1.498;2022-10-31T07:29:22;99875.19;;;11.47;100.00
41898;BME280;27576;53.366;-1.498;2022-10-31T07:31:47;99885.59;;;11.51;100.00
41898;BME280;27576;53.366;-1.498;2022-10-31T07:34:13;99874.34;;;11.45;100.00
41898;BME280;27576;53.366;-1.498;2022-10-31T07:36:38;99870.03;;;11.41;100.00
41898;BME280;27576;53.366;-1.498;2022-10-31T07:39:04;99857.91;;;11.29;100.00
41898;BME280;27576;53.366;-1.498;2022-10-31T07:41:29;99865.69;;;11.37;100.00
41898;BME280;27576;53.366;-1.498;2022-10-31T07:43:54;99887.34;;;11.52;100.00
41898;BME280;27576;53.366;-1.498;2022-10-31T07:46:21;99883.00;;;11.56;100.00
41898;BME280;27576;53.366;-1.498;2022-10-31T07:48:47;99864.84;;;11.45;100.00
41898;BME280;27576;53.366;-1.498;2022-10-31T07:51:12;99888.19;;;11.61;100.00
41898;BME280;27576;53.366;-1.498;2022-10-31T07:53:38;99892.50;;;11.62;100.00
41898;BME280;27576;53.366;-1.498;2022-10-31T07:56:03;99873.50;;;11.61;100.00
41898;BME280;27576;53.366;-1.498;2022-10-31T07:58:28;99888.19;;;11.62;100.00
41898;BME280;27576;53.366;-1.498;2022-10-31T08:00:54;99886.44;;;11.70;100.00
41898;BME280;27576;53.366;-1.498;2022-10-31T08:03:19;99874.38;;;11.68;100.00
41898;BME280;27576;53.366;-1.498;2022-10-31T08:05:45;99892.50;;;11.74;100.00
41898;BME280;27576;53.366;-1.498;2022-10-31T08:08:11;99890.78;;;11.80;100.00
41898;BME280;27576;53.366;-1.498;2022-10-31T08:10:37;99892.56;;;11.83;100.00
41898;BME280;27576;53.366;-1.498;2022-10-31T08:13:06;99899.47;;;11.84;100.00
41898;BME280;27576;53.366;-1.498;2022-10-31T08:15:32;99896.00;;;11.87;100.00
41898;BME280;27576;53.366;-1.498;2022-10-31T08:17:59;99892.50;;;11.78;100.00
41898;BME280;27576;53.366;-1.498;2022-10-31T08:20:25;99901.19;;;11.87;100.00
41898;BME280;27576;53.366;-1.498;2022-10-31T08:22:58;99907.25;;;11.92;100.00
41898;BME280;27576;53.366;-1.498;2022-10-31T08:25:24;99899.47;;;11.93;100.00
41898;BME280;27576;53.366;-1.498;2022-10-31T08:27:51;99905.50;;;11.94;100.00
41898;BME280;27576;53.366;-1.498;2022-10-31T08:30:17;99908.97;;;11.94;100.00
41898;BME280;27576;53.366;-1.498;2022-10-31T08:32:43;99906.38;;;11.96;100.00
41898;BME280;27576;53.366;-1.498;2022-10-31T08:35:08;99891.66;;;11.76;100.00
41898;BME280;27576;53.366;-1.498;2022-10-31T08:37:33;99858.78;;;11.72;100.00
41898;BME280;27576;53.366;-1.498;2022-10-31T08:39:59;99889.06;;;11.86;100.00
41898;BME280;27576;53.366;-1.498;2022-10-31T08:42:24;99899.47;;;12.02;100.00
41898;BME280;27576;53.366;-1.498;2022-10-31T08:44:49;99899.44;;;12.06;100.00
41898;BME280;27576;53.366;-1.498;2022-10-31T08:47:15;99908.97;;;12.10;100.00
41898;BME280;27576;53.366;-1.498;2022-10-31T08:49:40;99889.06;;;12.12;100.00
41898;BME280;27576;53.366;-1.498;2022-10-31T08:52:05;99872.59;;;12.05;100.00
41898;BME280;27576;53.366;-1.498;2022-10-31T08:54:31;99899.41;;;12.21;100.00
41898;BME280;27576;53.366;-1.498;2022-10-31T08:56:56;99882.97;;;12.20;100.00
41898;BME280;27576;53.366;-1.498;2022-10-31T08:59:22;99902.88;;;12.20;100.00
41898;BME280;27576;53.366;-1.498;2022-10-31T09:01:47;99863.97;;;12.03;100.00
41898;BME280;27576;53.366;-1.498;2022-10-31T09:04:12;99901.16;;;12.17;100.00
41898;BME280;27576;53.366;-1.498;2022-10-31T09:06:38;99899.44;;;12.16;100.00
41898;BME280;27576;53.366;-1.498;2022-10-31T09:09:03;99886.47;;;12.09;100.00
41898;BME280;27576;53.366;-1.498;2022-10-31T09:11:30;99885.59;;;12.13;100.00
41898;BME280;27576;53.366;-1.498;2022-10-31T09:13:56;99890.78;;;12.13;100.00
41898;BME280;27576;53.366;-1.498;2022-10-31T09:16:21;99868.28;;;12.15;100.00
41898;BME280;27576;53.366;-1.498;2022-10-31T09:18:46;99859.59;;;12.14;100.00
41898;BME280;27576;53.366;-1.498;2022-10-31T09:21:12;99868.25;;;12.21;100.00
41898;BME280;27576;53.366;-1.498;2022-10-31T09:23:37;99880.34;;;12.31;100.00
41898;BME280;27576;53.366;-1.498;2022-10-31T09:26:03;99859.56;;;12.25;100.00
41898;BME280;27576;53.366;-1.498;2022-10-31T09:28:28;99888.13;;;12.29;100.00
41898;BME280;27576;53.366;-1.498;2022-10-31T09:30:54;99864.78;;;12.22;100.00
41898;BME280;27576;53.366;-1.498;2022-10-31T09:33:20;99878.59;;;12.41;100.00
41898;BME280;27576;53.366;-1.498;2022-10-31T09:35:46;99834.47;;;12.27;100.00
41898;BME280;27576;53.366;-1.498;2022-10-31T09:38:16;99868.16;;;12.58;100.00
41898;BME280;27576;53.366;-1.498;2022-10-31T09:41:01;99849.94;;;12.53;100.00
41898;BME280;27576;53.366;-1.498;2022-10-31T09:51:31;99865.28;;;13.08;100.00
41898;BME280;27576;53.366;-1.498;2022-10-31T09:54:21;99837.59;;;12.98;100.00
41898;BME280;27576;53.366;-1.498;2022-10-31T09:56:51;99866.97;;;13.12;100.00
41898;BME280;27576;53.366;-1.498;2022-10-31T09:59:30;99868.69;;;13.16;100.00
41898;BME280;27576;53.366;-1.498;2022-10-31T10:02:00;99850.50;;;13.12;100.00
41898;BME280;27576;53.366;-1.498;2022-10-31T10:04:38;99877.34;;;13.21;100.00
41898;BME280;27576;53.366;-1.498;2022-10-31T10:09:55;99871.25;;;13.22;100.00
41898;BME280;27576;53.366;-1.498;2022-10-31T10:26:21;99847.00;;;13.23;100.00
41898;BME280;27576;53.366;-1.498;2022-10-31T10:29:01;99844.38;;;13.30;100.00
41898;BME280;27576;53.366;-1.498;2022-10-31T10:31:32;99857.38;;;13.26;100.00
41898;BME280;27576;53.366;-1.498;2022-10-31T10:34:12;99857.38;;;13.26;100.00
41898;BME280;27576;53.366;-1.498;2022-10-31T10:36:45;99840.94;;;13.18;100.00
41898;BME280;27576;53.366;-1.498;2022-10-31T10:39:24;99865.16;;;13.28;100.00
41898;BME280;27576;53.366;-1.498;2022-10-31T10:41:51;99855.66;;;13.25;100.00
41898;BME280;27576;53.366;-1.498;2022-10-31T10:44:40;99860.00;;;13.25;100.00
41898;BME280;27576;53.366;-1.498;2022-10-31T10:47:34;99838.34;;;13.17;100.00
41898;BME280;27576;53.366;-1.498;2022-10-31T10:50:21;99858.22;;;13.32;100.00
41898;BME280;27576;53.366;-1.498;2022-10-31T10:53:04;99858.22;;;13.32;100.00
41898;BME280;27576;53.366;-1.498;2022-10-31T10:55:51;99834.88;;;13.15;100.00
41898;BME280;27576;53.366;-1.498;2022-10-31T10:58:18;99791.72;;;12.89;100.00
41898;BME280;27576;53.366;-1.498;2022-10-31T11:00:45;99865.22;;;13.20;100.00
41898;BME280;27576;53.366;-1.498;2022-10-31T11:03:14;99850.47;;;13.21;100.00
41898;BME280;27576;53.366;-1.498;2022-10-31T11:05:57;99860.88;;;13.18;100.00
41898;BME280;27576;53.366;-1.498;2022-10-31T11:08:29;99850.50;;;13.13;100.00
41898;BME280;27576;53.366;-1.498;2022-10-31T11:10:59;99850.47;;;13.16;100.00
41898;BME280;27576;53.366;-1.498;2022-10-31T11:13:26;99842.72;;;13.10;100.00
41898;BME280;27576;53.366;-1.498;2022-10-31T11:16:10;99846.13;;;13.18;100.00
41898;BME280;27576;53.366;-1.498;2022-10-31T11:18:42;99840.03;;;13.22;100.00
41898;BME280;27576;53.366;-1.498;2022-10-31T11:21:20;99751.88;;;12.84;100.00
41898;BME280;27576;53.366;-1.498;2022-10-31T11:23:46;99794.16;;;13.14;100.00
41898;BME280;27576;53.366;-1.498;2022-10-31T11:26:30;99800.09;;;13.31;100.00
41898;BME280;27576;53.366;-1.498;2022-10-31T11:28:57;99808.66;;;13.44;100.00
41898;BME280;27576;53.366;-1.498;2022-10-31T11:31:23;99796.53;;;13.44;100.00
41898;BME280;27576;53.366;-1.498;2022-10-31T11:34:14;99795.63;;;13.50;100.00
41898;BME280;27576;53.366;-1.498;2022-10-31T11:36:39;99779.16;;;13.46;100.00
41898;BME280;27576;53.366;-1.498;2022-10-31T11:39:16;99779.91;;;13.59;100.00
41898;BME280;27576;53.366;-1.498;2022-10-31T11:41:43;99791.03;;;13.75;100.00
41898;BME280;27576;53.366;-1.498;2022-10-31T11:44:20;99768.53;;;13.69;100.00
41898;BME280;27576;53.366;-1.498;2022-10-31T11:46:49;99784.84;;;13.85;100.00
41898;BME280;27576;53.366;-1.498;2022-10-31T11:49:24;99779.63;;;13.87;100.00
41898;BME280;27576;53.366;-1.498;2022-10-31T11:51:55;99763.22;;;13.79;100.00
41898;BME280;27576;53.366;-1.498;2022-10-31T11:54:30;99769.19;;;13.87;100.00
41898;BME280;27576;53.366;-1.498;2022-10-31T11:56:58;99750.13;;;13.86;100.00
41898;BME280;27576;53.366;-1.498;2022-10-31T11:59:30;99753.41;;;14.02;100.00
41898;BME280;27576;53.366;-1.498;2022-10-31T12:01:57;99751.63;;;14.07;100.00
41898;BME280;27576;53.366;-1.498;2022-10-31T12:04:33;99736.09;;;13.98;100.00
41898;BME280;27576;53.366;-1.498;2022-10-31T12:07:00;99726.59;;;13.95;100.00
41898;BME280;27576;53.366;-1.498;2022-10-31T12:09:30;99755.94;;;14.08;100.00
41898;BME280;27576;53.366;-1.498;2022-10-31T12:20:29;99747.59;;;13.80;100.00
41898;BME280;27576;53.366;-1.498;2022-10-31T12:25:59;99728.63;;;13.66;100.00
41898;BME280;27576;53.366;-1.498;2022-10-31T12:50:31;99696.59;;;14.32;100.00
41898;BME280;27576;53.366;-1.498;2022-10-31T12:55:55;99629.56;;;13.80;100.00
41898;BME280;27576;53.366;-1.498;2022-10-31T12:58:26;99682.91;;;14.16;100.00
41898;BME280;27576;53.366;-1.498;2022-10-31T13:01:07;99638.91;;;13.93;100.00
41898;BME280;27576;53.366;-1.498;2022-10-31T13:06:42;99632.88;;;13.89;100.00
41898;BME280;27576;53.366;-1.498;2022-10-31T13:09:20;99669.97;;;14.08;100.00
41898;BME280;27576;53.366;-1.498;2022-10-31T13:11:55;99667.41;;;14.05;100.00
41898;BME280;27576;53.366;-1.498;2022-10-31T13:14:36;99643.28;;;13.92;100.00
41898;BME280;27576;53.366;-1.498;2022-10-31T13:17:04;99660.56;;;13.96;100.00
41898;BME280;27576;53.366;-1.498;2022-10-31T13:22:22;99655.38;;;13.96;100.00
41898;BME280;27576;53.366;-1.498;2022-10-31T13:27:44;99637.28;;;13.86;100.00
41898;BME280;27576;53.366;-1.498;2022-10-31T13:30:21;99651.06;;;13.95;100.00
41898;BME280;27576;53.366;-1.498;2022-10-31T13:32:51;99614.78;;;13.80;100.00
41898;BME280;27576;53.366;-1.498;2022-10-31T13:35:35;99637.13;;;13.96;100.00
41898;BME280;27576;53.366;-1.498;2022-10-31T13:43:31;99577.38;;;13.86;100.00
41898;BME280;27576;53.366;-1.498;2022-10-31T13:46:00;99602.34;;;14.00;100.00
41898;BME280;27576;53.366;-1.498;2022-10-31T13:50:59;99600.63;;;13.98;100.00
41898;BME280;27576;53.366;-1.498;2022-10-31T13:53:45;99592.84;;;13.96;100.00
41898;BME280;27576;53.366;-1.498;2022-10-31T13:56:32;99573.88;;;13.87;100.00
41898;BME280;27576;53.366;-1.498;2022-10-31T14:01:35;99588.50;;;13.97;100.00
41898;BME280;27576;53.366;-1.498;2022-10-31T14:04:16;99567.81;;;13.88;100.00
41898;BME280;27576;53.366;-1.498;2022-10-31T14:06:50;99564.31;;;13.89;100.00
41898;BME280;27576;53.366;-1.498;2022-10-31T14:09:20;99584.94;;;14.03;100.00
41898;BME280;27576;53.366;-1.498;2022-10-31T14:11:48;99575.34;;;14.08;100.00
41898;BME280;27576;53.366;-1.498;2022-10-31T14:14:14;99579.59;;;14.13;100.00
41898;BME280;27576;53.366;-1.498;2022-10-31T14:16:42;99557.09;;;14.08;100.00
41898;BME280;27576;53.366;-1.498;2022-10-31T14:19:19;99568.31;;;14.13;100.00
41898;BME280;27576;53.366;-1.498;2022-10-31T14:21:50;99572.66;;;14.12;100.00
41898;BME280;27576;53.366;-1.498;2022-10-31T14:26:55;99548.53;;;13.99;100.00
41898;BME280;27576;53.366;-1.498;2022-10-31T14:29:32;99538.28;;;13.89;100.00
41898;BME280;27576;53.366;-1.498;2022-10-31T14:31:59;99559.69;;;14.08;100.00
41898;BME280;27576;53.366;-1.498;2022-10-31T14:34:50;99542.50;;;13.96;100.00
41898;BME280;27576;53.366;-1.498;2022-10-31T14:40:07;99541.53;;;14.02;100.00
41898;BME280;27576;53.366;-1.498;2022-10-31T14:46:38;99506.16;;;13.87;100.00
41898;BME280;27576;53.366;-1.498;2022-10-31T14:49:12;99517.28;;;13.98;100.00